Time;durP1;ratioP1;P1;durP2;ratioP2;P2;SDS_P1;SDS_P2;PMS_P1;PMS_P2;Temp;Humidity;BMP_temperature;BMP_pressure;BME280_temperature;BME280_humidity;BME280_pressure;Samples;Min_cycle;Max_cycle;Signal;HPM_P1;HPM_P2
2023/04/09 00:02:28;;;;;;;5.82;4.07;;;15.60;68.50;;;;;;10338715;28;20017;-61
2023/04/09 00:07:29;;;;;;;6.53;4.32;;;15.60;68.40;;;;;;10326035;28;20150;-61
2023/04/09 00:12:30;;;;;;;6.40;4.10;;;15.60;68.40;;;;;;10325983;28;20096;-61
2023/04/09 00:17:30;;;;;;;6.47;4.63;;;15.60;68.40;;;;;;10325722;28;20113;-61
2023/04/09 00:22:31;;;;;;;6.60;4.70;;;15.60;68.40;;;;;;10325447;28;20076;-60
2023/04/09 00:27:31;;;;;;;8.18;5.68;;;15.60;68.70;;;;;;10325318;28;20046;-61
2023/04/09 00:32:32;;;;;;;9.43;4.97;;;15.70;72.90;;;;;;10324986;28;20402;-60
2023/04/09 00:37:33;;;;;;;6.70;4.82;;;15.80;72.20;;;;;;10323905;28;20113;-60
2023/04/09 00:42:36;;;;;;;6.22;5.13;;;15.80;71.80;;;;;;10324608;28;20675;-60
2023/04/09 00:47:37;;;;;;;6.47;4.70;;;15.80;71.80;;;;;;10324659;28;20596;-60
2023/04/09 00:52:38;;;;;;;5.50;4.20;;;15.80;71.60;;;;;;10324134;28;20025;-60
2023/04/09 00:57:39;;;;;;;6.80;5.05;;;15.80;70.90;;;;;;10324585;28;20037;-60
2023/04/09 01:02:40;;;;;;;5.22;3.92;;;15.70;70.60;;;;;;10336592;28;20397;-60
2023/04/09 01:08:27;;;;;;;6.72;4.85;;;15.70;70.60;;;;;;10322785;28;20042;-60
2023/04/09 01:13:46;;;;;;;4.70;3.08;;;15.70;70.60;;;;;;10324006;28;20114;-61
2023/04/09 01:19:35;;;;;;;7.05;4.40;;;15.70;70.70;;;;;;10322841;28;20528;-61
2023/04/09 01:24:51;;;;;;;6.82;4.05;;;15.70;70.30;;;;;;10304137;28;20050;-61
2023/04/09 01:29:53;;;;;;;4.70;3.47;;;15.70;70.10;;;;;;10322791;28;20022;-60
2023/04/09 01:34:54;;;;;;;4.90;3.33;;;15.70;70.10;;;;;;10323739;28;20023;-60
2023/04/09 01:39:55;;;;;;;6.72;4.25;;;15.60;69.90;;;;;;10323573;28;20077;-60
2023/04/09 01:44:57;;;;;;;6.00;3.47;;;15.60;70.00;;;;;;10323507;28;20022;-61
2023/04/09 01:49:58;;;;;;;5.50;3.88;;;15.60;69.80;;;;;;10321441;28;20030;-61
2023/04/09 01:54:58;;;;;;;5.03;3.92;;;15.60;69.50;;;;;;10323441;28;20034;-60
2023/04/09 01:59:59;;;;;;;6.72;4.57;;;15.60;69.60;;;;;;10334788;28;20101;-60
2023/04/09 02:05:05;;;;;;;7.03;5.30;;;15.60;69.70;;;;;;10327767;28;20027;-59
2023/04/09 02:10:08;;;;;;;7.22;5.15;;;15.60;69.70;;;;;;10330456;28;20033;-60
2023/04/09 02:15:10;;;;;;;6.03;4.72;;;15.60;69.50;;;;;;10329849;28;20038;-60
2023/04/09 02:20:15;;;;;;;5.45;4.18;;;15.60;69.50;;;;;;10312284;28;20041;-60
2023/04/09 02:25:16;;;;;;;8.00;4.25;;;15.50;69.60;;;;;;10328533;28;20109;-59
2023/04/09 02:30:16;;;;;;;7.63;5.00;;;15.60;69.50;;;;;;10329268;28;20045;-59
2023/04/09 02:35:17;;;;;;;5.82;4.22;;;15.60;69.40;;;;;;10328123;28;20062;-60
2023/04/09 02:40:18;;;;;;;7.43;4.95;;;15.60;69.40;;;;;;10327830;28;20050;-60
2023/04/09 02:45:18;;;;;;;5.93;4.45;;;15.50;69.40;;;;;;10327605;28;20034;-60
2023/04/09 02:50:19;;;;;;;5.72;4.78;;;15.50;69.30;;;;;;10328745;28;20038;-60
2023/04/09 02:55:21;;;;;;;5.38;4.10;;;15.50;69.30;;;;;;10328317;28;20034;-61
2023/04/09 03:00:22;;;;;;;7.90;4.97;;;15.50;69.40;;;;;;10340699;28;20014;-60
2023/04/09 03:05:22;;;;;;;6.55;4.97;;;15.50;69.30;;;;;;10327936;28;20050;-60
2023/04/09 03:10:24;;;;;;;6.05;4.65;;;15.50;69.30;;;;;;10326342;28;20062;-60
2023/04/09 03:15:25;;;;;;;6.45;4.63;;;15.50;69.30;;;;;;10309736;28;20551;-60
2023/04/09 03:20:25;;;;;;;6.78;4.55;;;15.50;69.20;;;;;;10326162;28;20050;-60
2023/04/09 03:25:26;;;;;;;6.18;4.90;;;15.50;69.20;;;;;;10327344;28;20482;-61
2023/04/09 03:30:27;;;;;;;5.97;4.22;;;15.40;69.20;;;;;;10327414;28;20038;-60
2023/04/09 03:35:28;;;;;;;7.35;4.93;;;15.40;69.10;;;;;;10325418;28;20121;-61
2023/04/09 03:40:29;;;;;;;5.25;4.25;;;15.40;69.10;;;;;;10326735;28;20033;-59
2023/04/09 03:45:29;;;;;;;6.93;4.75;;;15.40;69.10;;;;;;10326469;28;20046;-60
2023/04/09 03:50:30;;;;;;;6.05;4.45;;;15.40;69.10;;;;;;10326434;28;21046;-60
2023/04/09 03:55:31;;;;;;;6.35;4.63;;;15.40;69.10;;;;;;10326314;28;20038;-60
2023/04/09 04:00:31;;;;;;;6.97;5.38;;;15.40;69.10;;;;;;10338798;28;20533;-60
2023/04/09 04:05:32;;;;;;;6.95;4.60;;;15.40;69.00;;;;;;10326035;28;20561;-59
2023/04/09 04:10:33;;;;;;;6.50;5.15;;;15.40;69.00;;;;;;10325932;28;20428;-60
2023/04/09 04:15:43;;;;;;;7.20;5.72;;;15.40;69.00;;;;;;10324826;28;20473;-61
2023/04/09 04:20:44;;;;;;;8.13;5.70;;;15.40;68.80;;;;;;10324872;28;20045;-61
2023/04/09 04:25:45;;;;;;;7.10;5.18;;;15.60;68.50;;;;;;10321434;28;20043;-59
2023/04/09 04:30:45;;;;;;;6.13;4.93;;;15.80;68.60;;;;;;10321917;28;20068;-59
2023/04/09 04:35:46;;;;;;;8.48;6.20;;;16.00;67.80;;;;;;10324130;28;20117;-58
2023/04/09 04:40:47;;;;;;;6.35;4.40;;;16.10;67.30;;;;;;10324828;28;20545;-60
2023/04/09 04:45:47;;;;;;;7.18;4.55;;;16.10;67.20;;;;;;10323971;28;20131;-59
2023/04/09 04:50:56;;;;;;;9.75;5.72;;;16.20;67.20;;;;;;10323911;28;20452;-58
2023/04/09 04:55:56;;;;;;;11.02;5.35;;;16.10;67.80;;;;;;10323015;28;20118;-57
2023/04/09 05:00:59;;;;;;;13.18;5.43;;;16.30;67.70;;;;;;10332433;28;20450;-58
2023/04/09 05:05:59;;;;;;;19.10;6.55;;;16.20;68.40;;;;;;10319370;28;20055;-57
2023/04/09 05:11:00;;;;;;;15.23;6.82;;;16.10;68.60;;;;;;10321236;28;20026;-59
2023/04/09 05:16:01;;;;;;;29.67;7.03;;;16.00;69.50;;;;;;10319228;28;20121;-57
2023/04/09 05:21:01;;;;;;;26.75;7.20;;;16.00;68.90;;;;;;10318476;28;20097;-57
2023/04/09 05:26:02;;;;;;;11.43;7.00;;;16.00;69.80;;;;;;10317809;28;20616;-57
2023/04/09 05:31:03;;;;;;;17.98;6.70;;;16.10;70.10;;;;;;10321425;28;20651;-58
2023/04/09 05:36:04;;;;;;;16.63;7.95;;;16.10;70.20;;;;;;10321369;28;20505;-57
2023/04/09 05:41:05;;;;;;;19.77;6.60;;;16.00;70.00;;;;;;10328670;28;20402;-57
2023/04/09 05:46:06;;;;;;;18.33;7.05;;;16.00;70.10;;;;;;10327616;28;20026;-56
2023/04/09 05:51:08;;;;;;;22.33;9.10;;;16.10;70.30;;;;;;10328587;28;20493;-58
2023/04/09 05:56:15;;;;;;;22.13;8.32;;;16.10;70.30;;;;;;10328996;28;20061;-58
2023/04/09 06:01:15;;;;;;;27.70;9.32;;;16.00;70.20;;;;;;10335252;28;20022;-60
2023/04/09 06:06:16;;;;;;;44.83;12.35;;;16.00;70.10;;;;;;10327945;28;20129;-60
2023/04/09 06:11:17;;;;;;;58.88;11.88;;;15.90;70.40;;;;;;10327628;28;20109;-61
2023/04/09 06:16:17;;;;;;;58.40;14.48;;;15.90;70.40;;;;;;10328263;28;20431;-59
2023/04/09 06:21:18;;;;;;;61.53;15.10;;;15.90;70.00;;;;;;10327995;28;20105;-60
2023/04/09 06:26:20;;;;;;;42.47;11.23;;;15.90;70.30;;;;;;10325985;28;21203;-59
2023/04/09 06:31:20;;;;;;;35.30;11.65;;;15.90;70.40;;;;;;10326783;28;20026;-60
2023/04/09 06:36:21;;;;;;;31.90;10.15;;;15.90;70.40;;;;;;10327103;28;20058;-59
2023/04/09 06:41:22;;;;;;;37.33;11.18;;;15.80;70.20;;;;;;10326839;28;20483;-60
2023/04/09 06:46:23;;;;;;;22.77;10.32;;;15.80;70.20;;;;;;10320910;28;20085;-60
2023/04/09 06:51:24;;;;;;;24.75;9.35;;;15.80;70.00;;;;;;10317726;28;20081;-59
2023/04/09 06:56:24;;;;;;;26.38;10.65;;;15.70;69.90;;;;;;10323118;28;20030;-59
2023/04/09 07:01:25;;;;;;;18.17;9.90;;;15.70;69.70;;;;;;10331288;28;20041;-59
2023/04/09 07:06:26;;;;;;;26.33;9.48;;;15.70;69.80;;;;;;10325418;28;20046;-59
2023/04/09 07:11:27;;;;;;;23.63;11.20;;;15.70;69.60;;;;;;10325599;28;20022;-59
2023/04/09 07:16:27;;;;;;;26.33;10.93;;;15.70;69.50;;;;;;10325830;28;20066;-59
2023/04/09 07:21:28;;;;;;;22.30;9.23;;;15.70;69.50;;;;;;10326384;28;20058;-59
2023/04/09 07:26:29;;;;;;;27.67;11.20;;;15.70;69.30;;;;;;10324627;28;20022;-60
2023/04/09 07:31:30;;;;;;;33.45;13.50;;;15.70;69.70;;;;;;10325233;28;20030;-56
2023/04/09 07:36:31;;;;;;;39.40;13.57;;;15.70;68.90;;;;;;10326341;28;20087;-59
2023/04/09 07:41:31;;;;;;;51.80;14.93;;;15.70;68.90;;;;;;10326937;28;20351;-60
2023/04/09 07:46:32;;;;;;;58.08;16.02;;;15.70;69.00;;;;;;10326690;28;20067;-58
2023/04/09 07:51:33;;;;;;;52.10;18.08;;;15.80;69.20;;;;;;10319069;28;20030;-60
2023/04/09 07:56:33;;;;;;;50.78;16.05;;;15.80;69.30;;;;;;10320759;28;20201;-59
2023/04/09 08:01:34;;;;;;;55.33;19.20;;;15.90;69.80;;;;;;10327984;28;20073;-56
2023/04/09 08:06:35;;;;;;;59.33;17.33;;;15.90;69.60;;;;;;10324424;28;20189;-58
2023/04/09 08:11:36;;;;;;;71.70;17.77;;;15.90;69.70;;;;;;10325508;28;20036;-59
2023/04/09 08:16:37;;;;;;;55.67;16.55;;;16.00;70.20;;;;;;10318716;28;20027;-59
2023/04/09 08:21:42;;;;;;;51.80;15.68;;;16.00;70.00;;;;;;10330790;28;20031;-59
2023/04/09 08:26:43;;;;;;;41.90;17.17;;;16.00;70.30;;;;;;10325251;28;20108;-56
2023/04/09 08:31:44;;;;;;;42.13;18.50;;;16.10;70.50;;;;;;10324036;28;20025;-59
2023/04/09 08:36:46;;;;;;;37.58;16.33;;;16.10;70.80;;;;;;10325064;28;20484;-48
2023/04/09 08:41:47;;;;;;;33.60;18.10;;;16.20;68.30;;;;;;10323301;28;20062;-56
2023/04/09 08:46:47;;;;;;;37.85;17.95;;;16.40;68.30;;;;;;10322602;28;20413;-53
2023/04/09 08:51:48;;;;;;;44.80;18.50;;;16.90;66.30;;;;;;10322529;28;20033;-53
2023/04/09 08:56:49;;;;;;;51.08;20.50;;;17.30;67.10;;;;;;10324430;28;20109;-58
2023/04/09 09:02:10;;;;;;;56.83;21.23;;;17.50;67.70;;;;;;10325713;28;20109;-57
2023/04/09 09:07:10;;;;;;;42.08;17.77;;;17.30;66.80;;;;;;10321245;28;20501;-58
2023/04/09 09:12:27;;;;;;;40.95;17.02;;;17.30;67.40;;;;;;10317752;28;20030;-62
2023/04/09 09:17:28;;;;;;;39.63;18.50;;;17.70;67.20;;;;;;10313201;28;20058;-60
2023/04/09 09:22:52;;;;;;;36.92;17.70;;;17.20;67.90;;;;;;10317203;28;20019;-61
2023/04/09 09:27:53;;;;;;;39.58;17.42;;;17.00;66.70;;;;;;10319976;28;20022;-59
2023/04/09 09:33:10;;;;;;;38.95;16.17;;;17.00;64.20;;;;;;10323719;28;20030;-63
2023/04/09 09:38:11;;;;;;;33.95;16.02;;;17.20;66.40;;;;;;10322842;28;20037;-55
2023/04/09 09:43:13;;;;;;;27.95;14.95;;;17.40;67.70;;;;;;10304970;28;20134;-61
2023/04/09 09:48:14;;;;;;;34.30;15.10;;;17.60;68.20;;;;;;10321512;28;20057;-58
2023/04/09 09:53:21;;;;;;;36.92;16.42;;;17.80;69.00;;;;;;10323468;28;20579;-57
2023/04/09 09:58:27;;;;;;;27.38;13.52;;;17.80;69.60;;;;;;10320881;28;20066;-62
2023/04/09 10:03:30;;;;;;;31.90;13.77;;;18.00;70.00;;;;;;10332654;28;20105;-56
2023/04/09 10:08:33;;;;;;;22.92;12.80;;;18.00;69.80;;;;;;10319762;28;20050;-56
2023/04/09 10:13:39;;;;;;;34.55;14.13;;;18.00;70.00;;;;;;10322973;28;20037;-58
2023/04/09 10:18:41;;;;;;;35.00;16.48;;;17.90;69.70;;;;;;10322010;28;20022;-60
2023/04/09 10:23:44;;;;;;;37.40;14.60;;;17.50;64.70;;;;;;10335772;28;20026;-57
2023/04/09 10:28:45;;;;;;;21.65;12.80;;;17.30;63.60;;;;;;10327234;28;20027;-60
2023/04/09 10:33:45;;;;;;;21.23;13.75;;;17.10;63.30;;;;;;10319689;28;20023;-57
2023/04/09 10:38:47;;;;;;;25.48;14.00;;;17.00;62.80;;;;;;10318041;28;20076;-59
2023/04/09 10:43:48;;;;;;;21.48;13.80;;;16.80;62.70;;;;;;10321987;28;20026;-57
2023/04/09 10:48:48;;;;;;;23.52;14.27;;;16.80;62.20;;;;;;10321408;28;20398;-57
2023/04/09 10:53:53;;;;;;;21.45;14.02;;;16.70;62.20;;;;;;10324526;28;20034;-58
2023/04/09 10:58:53;;;;;;;19.67;13.32;;;16.70;61.50;;;;;;10322512;28;20420;-58
2023/04/09 11:04:08;;;;;;;19.83;13.23;;;16.60;60.20;;;;;;10315294;28;20116;-58
2023/04/09 11:09:09;;;;;;;22.75;13.73;;;16.60;60.10;;;;;;10321985;28;20077;-62
2023/04/09 11:14:09;;;;;;;35.63;12.55;;;16.70;60.00;;;;;;10321903;28;20151;-57
2023/04/09 11:19:10;;;;;;;24.92;11.27;;;16.70;59.70;;;;;;10326482;28;20065;-61
2023/04/09 11:24:12;;;;;;;24.77;12.45;;;16.70;59.60;;;;;;10325757;28;20026;-58
2023/04/09 11:29:12;;;;;;;25.33;12.30;;;16.70;58.50;;;;;;10326301;28;20102;-61
2023/04/09 11:34:13;;;;;;;20.17;11.15;;;16.80;59.00;;;;;;10327606;28;20038;-62
2023/04/09 11:39:14;;;;;;;22.77;12.40;;;16.70;58.30;;;;;;10325427;28;20097;-61
2023/04/09 11:44:14;;;;;;;16.05;10.43;;;16.70;57.80;;;;;;10324566;28;20064;-60
2023/04/09 11:49:16;;;;;;;18.80;10.60;;;16.60;57.20;;;;;;10323580;28;20113;-60
2023/04/09 11:54:17;;;;;;;13.95;9.45;;;16.60;57.70;;;;;;10323722;28;20045;-61
2023/04/09 11:59:18;;;;;;;16.05;10.07;;;16.60;58.00;;;;;;10325701;28;20093;-61
2023/04/09 12:04:22;;;;;;;16.35;8.73;;;16.60;58.30;;;;;;10324662;28;20022;-61
2023/04/09 12:09:23;;;;;;;14.18;9.40;;;16.60;58.60;;;;;;10325243;28;20042;-61
2023/04/09 12:14:26;;;;;;;15.63;9.70;;;16.70;59.00;;;;;;10326251;28;20041;-61
2023/04/09 12:19:27;;;;;;;11.57;8.18;;;16.70;59.50;;;;;;10325919;28;20132;-61
2023/04/09 12:24:27;;;;;;;13.18;7.85;;;16.70;59.80;;;;;;10325536;28;20113;-62
2023/04/09 12:29:29;;;;;;;13.38;8.23;;;16.70;59.90;;;;;;10325025;28;20069;-60
2023/04/09 12:34:30;;;;;;;12.60;8.18;;;16.70;60.30;;;;;;10322790;28;20026;-61
2023/04/09 12:39:31;;;;;;;13.98;7.72;;;16.70;60.90;;;;;;10324760;28;20465;-61
2023/04/09 12:44:32;;;;;;;21.27;8.23;;;16.70;60.90;;;;;;10324622;28;20042;-62
2023/04/09 12:49:32;;;;;;;22.52;7.97;;;16.80;61.10;;;;;;10324161;28;20488;-59
2023/04/09 12:54:33;;;;;;;16.35;6.40;;;16.80;61.50;;;;;;10324063;28;20026;-58
2023/04/09 12:59:34;;;;;;;16.77;7.13;;;17.00;61.60;;;;;;10328864;28;20661;-58
2023/04/09 13:04:34;;;;;;;17.92;7.07;;;17.00;62.20;;;;;;10324426;28;20538;-59
2023/04/09 13:09:35;;;;;;;20.95;7.72;;;17.00;62.50;;;;;;10322265;28;20141;-59
2023/04/09 13:14:38;;;;;;;19.52;7.75;;;17.00;61.90;;;;;;10320681;28;20105;-58
2023/04/09 13:19:40;;;;;;;15.65;7.63;;;17.00;62.40;;;;;;10319893;28;20110;-61
2023/04/09 13:24:41;;;;;;;26.05;8.65;;;17.00;62.80;;;;;;10320068;28;20022;-60
2023/04/09 13:29:42;;;;;;;25.23;7.28;;;17.00;62.80;;;;;;10320847;28;20034;-60
2023/04/09 13:34:43;;;;;;;27.67;7.45;;;16.90;63.50;;;;;;10322838;28;20121;-60
2023/04/09 13:39:44;;;;;;;21.27;7.68;;;16.90;63.20;;;;;;10322735;28;21074;-61
2023/04/09 13:44:44;;;;;;;19.55;7.70;;;16.90;63.10;;;;;;10320414;28;20023;-61
2023/04/09 13:49:45;;;;;;;17.27;7.22;;;16.90;63.00;;;;;;10318591;28;20062;-60
2023/04/09 13:54:46;;;;;;;15.48;6.05;;;16.90;63.10;;;;;;10318634;28;20474;-61
2023/04/09 13:59:46;;;;;;;16.00;7.18;;;16.90;63.20;;;;;;10331596;28;20157;-60
2023/04/09 14:04:47;;;;;;;13.27;5.72;;;17.00;63.40;;;;;;10328732;28;20030;-61
2023/04/09 14:09:50;;;;;;;15.35;6.68;;;17.00;63.50;;;;;;10326625;28;20137;-60
2023/04/09 14:14:51;;;;;;;11.95;5.80;;;17.00;63.90;;;;;;10327056;28;20038;-60
2023/04/09 14:19:51;;;;;;;11.55;5.68;;;17.00;64.20;;;;;;10328216;28;20345;-61
2023/04/09 14:24:52;;;;;;;11.38;5.75;;;17.00;64.40;;;;;;10327979;28;20474;-61
2023/04/09 14:29:53;;;;;;;12.63;6.25;;;17.00;64.70;;;;;;10326742;28;20114;-61
2023/04/09 14:34:53;;;;;;;10.57;4.78;;;16.90;64.80;;;;;;10326678;28;20125;-60
2023/04/09 14:39:54;;;;;;;10.88;5.40;;;16.90;65.00;;;;;;10325895;28;20106;-61
2023/04/09 14:44:55;;;;;;;12.85;6.47;;;16.90;65.00;;;;;;10327155;28;20533;-61
2023/04/09 14:49:55;;;;;;;8.90;5.28;;;16.90;65.10;;;;;;10327158;28;20046;-60
2023/04/09 14:54:57;;;;;;;11.55;5.47;;;16.80;65.30;;;;;;10326507;28;20089;-61
2023/04/09 14:59:58;;;;;;;12.50;6.28;;;16.80;65.30;;;;;;10337128;28;20485;-61
2023/04/09 15:04:59;;;;;;;11.32;6.03;;;16.90;65.50;;;;;;10325909;28;20085;-60
2023/04/09 15:10:00;;;;;;;9.13;5.35;;;16.90;65.50;;;;;;10326004;28;20046;-60
2023/04/09 15:15:05;;;;;;;6.57;4.50;;;16.90;65.50;;;;;;10308563;28;20483;-60
2023/04/09 15:20:07;;;;;;;8.07;4.60;;;16.80;65.50;;;;;;10326038;28;20047;-61
2023/04/09 15:25:08;;;;;;;7.10;4.57;;;16.80;65.80;;;;;;10325593;28;20018;-60
2023/04/09 15:30:08;;;;;;;7.53;5.03;;;16.80;66.40;;;;;;10325465;28;20050;-60
2023/04/09 15:35:09;;;;;;;5.70;4.28;;;16.80;65.80;;;;;;10325091;28;20030;-61
2023/04/09 15:40:11;;;;;;;6.97;3.65;;;16.80;65.80;;;;;;10323908;28;20072;-60
2023/04/09 15:45:15;;;;;;;7.03;4.40;;;16.80;65.80;;;;;;10325567;28;20161;-61
2023/04/09 15:50:15;;;;;;;5.72;4.20;;;16.70;65.90;;;;;;10324728;28;20025;-61
2023/04/09 15:55:16;;;;;;;6.18;4.68;;;16.70;66.00;;;;;;10324678;28;20520;-61
2023/04/09 16:00:17;;;;;;;6.65;4.47;;;16.60;66.00;;;;;;10337127;28;20037;-60
2023/04/09 16:05:18;;;;;;;7.43;4.70;;;16.70;66.00;;;;;;10306547;28;20029;-61
2023/04/09 16:10:19;;;;;;;6.65;4.65;;;16.70;66.00;;;;;;10323986;28;20030;-60
2023/04/09 16:15:20;;;;;;;7.03;4.60;;;16.70;66.10;;;;;;10323388;28;20298;-58
2023/04/09 16:20:21;;;;;;;6.30;4.43;;;16.60;66.00;;;;;;10323380;28;20110;-60
2023/04/09 16:25:23;;;;;;;5.97;4.20;;;16.60;66.10;;;;;;10322283;28;20026;-60
2023/04/09 16:30:23;;;;;;;6.25;3.85;;;16.60;66.20;;;;;;10321971;28;20058;-60
2023/04/09 16:35:24;;;;;;;8.13;4.68;;;16.60;66.30;;;;;;10322748;28;20129;-60
2023/04/09 16:40:25;;;;;;;4.75;3.92;;;16.60;66.40;;;;;;10323514;28;20053;-60
2023/04/09 16:45:26;;;;;;;6.47;4.68;;;16.50;66.40;;;;;;10322926;28;20030;-60
2023/04/09 16:50:26;;;;;;;5.55;3.85;;;16.50;66.40;;;;;;10322712;28;20026;-60
2023/04/09 16:55:27;;;;;;;5.28;3.75;;;16.50;66.40;;;;;;10322169;28;20038;-60
2023/04/09 17:00:28;;;;;;;6.20;3.92;;;16.50;66.50;;;;;;10322290;28;20498;-60
2023/04/09 17:05:29;;;;;;;6.75;3.92;;;16.50;66.50;;;;;;10321849;28;20138;-60
2023/04/09 17:10:29;;;;;;;6.22;3.95;;;16.50;66.50;;;;;;10321804;28;20035;-60
2023/04/09 17:15:30;;;;;;;4.95;3.88;;;16.50;66.50;;;;;;10322198;28;20106;-60
2023/04/09 17:20:31;;;;;;;4.95;3.83;;;16.50;66.60;;;;;;10322354;28;20032;-60
2023/04/09 17:25:31;;;;;;;4.88;3.47;;;16.50;66.60;;;;;;10320624;28;20026;-60
2023/04/09 17:30:32;;;;;;;5.82;3.97;;;16.50;66.70;;;;;;10320353;28;20023;-59
2023/04/09 17:35:33;;;;;;;5.32;4.05;;;16.50;66.70;;;;;;10324699;28;20563;-60
2023/04/09 17:40:34;;;;;;;4.88;3.85;;;16.40;66.70;;;;;;10329495;28;20015;-60
2023/04/09 17:45:35;;;;;;;5.80;3.85;;;16.40;66.80;;;;;;10327878;28;20040;-60
2023/04/09 17:50:38;;;;;;;4.95;3.15;;;16.40;66.80;;;;;;10328141;28;20101;-60
2023/04/09 17:55:46;;;;;;;4.30;3.00;;;16.40;66.80;;;;;;10328786;28;20041;-60
2023/04/09 18:00:47;;;;;;;4.35;3.40;;;16.40;66.90;;;;;;10328404;28;20026;-60
2023/04/09 18:05:48;;;;;;;5.45;3.53;;;16.30;66.80;;;;;;10328397;28;20189;-61
2023/04/09 18:10:54;;;;;;;4.75;3.03;;;16.30;66.90;;;;;;10327378;28;20102;-60
2023/04/09 18:15:55;;;;;;;5.45;3.67;;;16.30;66.90;;;;;;10325923;28;20065;-60
2023/04/09 18:20:56;;;;;;;3.78;2.78;;;16.30;66.90;;;;;;10325305;28;20019;-60
2023/04/09 18:25:56;;;;;;;3.47;2.63;;;16.30;66.80;;;;;;10323804;28;20053;-60
2023/04/09 18:30:57;;;;;;;7.40;2.97;;;16.30;67.00;;;;;;10324282;28;20089;-60
2023/04/09 18:36:01;;;;;;;6.25;3.85;;;16.30;67.00;;;;;;10327464;28;20061;-59
2023/04/09 18:41:02;;;;;;;5.45;3.65;;;16.30;67.00;;;;;;10326236;28;20442;-60
2023/04/09 18:46:03;;;;;;;4.60;3.17;;;16.20;67.00;;;;;;10326225;28;20018;-60
2023/04/09 18:51:04;;;;;;;5.18;3.50;;;16.20;67.10;;;;;;10326340;28;20132;-60
2023/04/09 18:56:06;;;;;;;5.93;3.45;;;16.20;67.00;;;;;;10327154;28;20084;-60
2023/04/09 19:01:10;;;;;;;5.00;3.53;;;16.20;66.80;;;;;;10326129;28;20073;-61
2023/04/09 19:06:16;;;;;;;3.85;3.03;;;16.20;66.90;;;;;;10326515;28;20073;-60
2023/04/09 19:11:17;;;;;;;5.65;3.42;;;16.20;66.90;;;;;;10325630;28;20809;-61
2023/04/09 19:16:19;;;;;;;6.78;3.47;;;16.20;66.90;;;;;;10326067;28;20125;-61
2023/04/09 19:21:21;;;;;;;4.60;3.05;;;16.20;66.80;;;;;;10324338;28;20061;-61
2023/04/09 19:26:21;;;;;;;5.00;3.78;;;16.20;66.80;;;;;;10323219;28;20029;-60
2023/04/09 19:31:22;;;;;;;5.72;3.67;;;16.10;66.80;;;;;;10325552;28;20022;-60
2023/04/09 19:36:23;;;;;;;4.75;3.35;;;16.10;66.80;;;;;;10324276;28;20057;-61
2023/04/09 19:41:23;;;;;;;4.05;3.22;;;16.10;66.70;;;;;;10323167;28;20022;-61
2023/04/09 19:46:24;;;;;;;5.50;3.65;;;16.10;66.60;;;;;;10325181;28;20105;-60
2023/04/09 19:51:26;;;;;;;4.18;3.22;;;16.10;66.70;;;;;;10324418;28;20073;-61
2023/04/09 19:56:26;;;;;;;3.95;2.95;;;16.10;66.60;;;;;;10322055;28;20046;-61
2023/04/09 20:01:27;;;;;;;6.00;3.50;;;16.10;66.50;;;;;;10336839;28;20098;-60
2023/04/09 20:06:29;;;;;;;4.78;3.28;;;16.10;66.40;;;;;;10324363;28;20050;-60
2023/04/09 20:11:30;;;;;;;4.35;3.30;;;16.10;66.40;;;;;;10324615;28;20027;-60
2023/04/09 20:16:31;;;;;;;3.95;3.10;;;16.00;66.40;;;;;;10325546;28;20442;-60
2023/04/09 20:21:31;;;;;;;4.93;3.47;;;16.00;66.30;;;;;;10307906;28;20018;-60
2023/04/09 20:26:32;;;;;;;6.03;3.80;;;16.00;66.30;;;;;;10323860;28;20050;-60
2023/04/09 20:31:34;;;;;;;4.25;3.17;;;16.00;66.30;;;;;;10324729;28;20121;-60
2023/04/09 20:36:34;;;;;;;4.15;3.30;;;16.00;66.20;;;;;;10307122;28;20084;-60
2023/04/09 20:41:35;;;;;;;4.45;3.55;;;16.00;66.20;;;;;;10324970;28;20715;-60
2023/04/09 20:46:36;;;;;;;5.20;3.80;;;16.00;66.20;;;;;;10307003;28;20022;-60
2023/04/09 20:51:37;;;;;;;5.00;3.72;;;16.00;66.20;;;;;;10323561;28;20133;-61
2023/04/09 20:56:37;;;;;;;3.88;3.15;;;16.00;66.20;;;;;;10323821;28;20034;-60
2023/04/09 21:01:38;;;;;;;4.80;3.28;;;16.00;66.20;;;;;;10336604;28;20100;-60
2023/04/09 21:06:39;;;;;;;5.13;4.18;;;16.00;66.10;;;;;;10306605;28;20606;-60
2023/04/09 21:11:39;;;;;;;5.45;3.67;;;16.00;66.00;;;;;;10322055;28;20049;-60
2023/04/09 21:16:40;;;;;;;4.43;3.50;;;16.00;66.00;;;;;;10323524;28;20042;-60
2023/04/09 21:21:41;;;;;;;4.95;4.30;;;15.90;66.00;;;;;;10323466;28;20019;-60
2023/04/09 21:26:41;;;;;;;3.78;3.38;;;15.90;66.10;;;;;;10323109;28;20030;-60
2023/04/09 21:31:42;;;;;;;4.50;3.20;;;15.90;66.10;;;;;;10323357;28;20108;-60
2023/04/09 21:36:43;;;;;;;4.03;3.40;;;15.90;66.10;;;;;;10321695;28;20784;-60
2023/04/09 21:41:44;;;;;;;4.28;3.45;;;15.90;66.20;;;;;;10323451;28;20018;-60
2023/04/09 21:46:46;;;;;;;6.38;4.20;;;15.90;66.20;;;;;;10321864;28;20058;-60
2023/04/09 21:51:47;;;;;;;4.60;3.58;;;15.90;66.20;;;;;;10321536;28;20157;-60
2023/04/09 21:56:47;;;;;;;5.53;4.18;;;15.90;66.30;;;;;;10321327;28;20437;-60
2023/04/09 22:01:48;;;;;;;5.53;4.30;;;15.90;66.20;;;;;;10335586;28;20057;-60
2023/04/09 22:06:49;;;;;;;5.22;3.90;;;15.90;66.20;;;;;;10321106;28;20468;-60
2023/04/09 22:11:49;;;;;;;5.10;4.03;;;15.90;66.10;;;;;;10337860;28;20106;-60
2023/04/09 22:16:50;;;;;;;4.85;4.15;;;15.90;66.00;;;;;;10322427;28;20077;-60
2023/04/09 22:21:51;;;;;;;5.50;4.55;;;15.90;65.90;;;;;;10325759;28;20496;-61
2023/04/09 22:26:52;;;;;;;5.38;4.13;;;15.90;65.90;;;;;;10312046;28;20314;-59
2023/04/09 22:31:56;;;;;;;6.03;4.60;;;15.90;66.00;;;;;;10329710;28;20504;-60
2023/04/09 22:36:57;;;;;;;8.18;4.55;;;15.80;66.00;;;;;;10329622;28;20113;-59
2023/04/09 22:41:58;;;;;;;5.47;4.72;;;15.80;65.90;;;;;;10329215;28;20609;-60
2023/04/09 22:46:58;;;;;;;5.50;4.65;;;15.90;66.10;;;;;;10329040;28;20157;-61
2023/04/09 22:51:59;;;;;;;6.57;4.50;;;15.80;66.10;;;;;;10328766;28;20053;-61
2023/04/09 22:57:00;;;;;;;6.90;5.07;;;15.80;66.10;;;;;;10328558;28;20093;-60
2023/04/09 23:02:01;;;;;;;5.30;4.80;;;15.80;66.00;;;;;;10339864;28;20149;-60
2023/04/09 23:07:02;;;;;;;5.38;4.22;;;15.80;66.00;;;;;;10326746;28;20058;-60
2023/04/09 23:12:03;;;;;;;5.70;4.65;;;15.80;66.10;;;;;;10326863;28;20079;-60
2023/04/09 23:17:03;;;;;;;5.80;4.75;;;15.80;66.00;;;;;;10327875;28;20040;-60
2023/04/09 23:22:05;;;;;;;7.05;5.78;;;15.80;66.10;;;;;;10327586;28;20094;-60
2023/04/09 23:27:05;;;;;;;5.68;4.75;;;15.80;66.20;;;;;;10326169;28;20478;-60
2023/04/09 23:32:06;;;;;;;5.80;4.80;;;15.70;66.20;;;;;;10325356;28;20069;-60
2023/04/09 23:37:08;;;;;;;5.63;5.03;;;15.70;66.00;;;;;;10327227;28;20658;-60
2023/04/09 23:42:08;;;;;;;6.28;5.00;;;15.70;66.10;;;;;;10326913;28;20057;-60
2023/04/09 23:47:10;;;;;;;5.07;4.47;;;15.70;66.00;;;;;;10309281;28;20109;-60
2023/04/09 23:52:11;;;;;;;8.68;5.60;;;15.70;66.10;;;;;;10325157;28;20548;-60
2023/04/09 23:57:12;;;;;;;6.13;4.75;;;15.70;66.00;;;;;;10324877;28;20121;-60
